createdAt,value
2022-11-26T00:01:19.192Z,101818.34
2022-11-26T00:04:04.628Z,101818.16
2022-11-26T00:06:49.782Z,101823.31
2022-11-26T00:09:34.686Z,101828.16
2022-11-26T00:12:21.341Z,101829.09
2022-11-26T00:15:15.952Z,101831.88
2022-11-26T00:18:01.157Z,101832.53
2022-11-26T00:20:50.344Z,101828.28
2022-11-26T00:23:35.548Z,101837.66
2022-11-26T00:26:22.738Z,101836.13
2022-11-26T00:29:10.145Z,101836.78
2022-11-26T00:31:55.530Z,101841.22
2022-11-26T00:34:40.867Z,101850.66
2022-11-26T00:37:41.757Z,101841.28
2022-11-26T00:40:31.976Z,101852.97
2022-11-26T00:43:18.116Z,101863.78
2022-11-26T00:46:03.328Z,101867.66
2022-11-26T00:48:48.865Z,101863.53
2022-11-26T00:51:34.752Z,101875.47
2022-11-26T00:54:21.511Z,101873.25
2022-11-26T00:57:10.583Z,101882.09
2022-11-26T00:59:55.868Z,101889.31
2022-11-26T01:02:40.671Z,101896.19
2022-11-26T01:05:28.537Z,101897.94
2022-11-26T01:08:29.571Z,101905.41
2022-11-26T01:11:19.134Z,101908.22
2022-11-26T01:14:04.260Z,101912.00
2022-11-26T01:16:56.723Z,101911.47
2022-11-26T01:19:41.832Z,101914.16
2022-11-26T01:22:26.732Z,101916.38
2022-11-26T01:25:11.995Z,101911.53
2022-11-26T01:27:57.635Z,101912.84
2022-11-26T01:30:43.674Z,101912.09
2022-11-26T01:33:28.790Z,101912.91
2022-11-26T01:36:27.453Z,101915.78
2022-11-26T01:39:18.847Z,101918.16
2022-11-26T01:42:26.389Z,101916.59
2022-11-26T01:45:17.041Z,101920.78
2022-11-26T01:48:02.319Z,101926.88
2022-11-26T01:50:52.300Z,101920.78
2022-11-26T01:53:43.675Z,101921.34
2022-11-26T01:56:37.236Z,101921.00
2022-11-26T01:59:26.885Z,101912.84
2022-11-26T02:02:12.043Z,101919.16
2022-11-26T02:05:29.863Z,101911.19
2022-11-26T02:08:14.891Z,101904.34
2022-11-26T02:11:02.484Z,101918.84
2022-11-26T02:13:51.740Z,101921.00
2022-11-26T02:16:49.068Z,101922.44
2022-11-26T02:20:04.968Z,101910.88
2022-11-26T02:22:50.080Z,101916.56
2022-11-26T02:26:05.751Z,101912.16
2022-11-26T02:29:12.094Z,101913.81
2022-11-26T02:32:08.392Z,101926.38
2022-11-26T02:35:05.624Z,101920.31
2022-11-26T02:38:09.761Z,101930.16
2022-11-26T02:40:54.909Z,101941.47
2022-11-26T02:43:40.450Z,101942.47
2022-11-26T02:46:25.929Z,101949.16
2022-11-26T02:49:14.719Z,101946.41
2022-11-26T02:52:03.244Z,101952.09
2022-11-26T02:54:50.858Z,101954.88
2022-11-26T02:57:45.405Z,101957.72
2022-11-26T03:00:33.826Z,101954.47
2022-11-26T03:03:27.881Z,101965.91
2022-11-26T03:06:14.947Z,101950.41
2022-11-26T03:09:00.882Z,101961.22
2022-11-26T03:11:45.975Z,101952.06
2022-11-26T03:14:31.453Z,101960.91
2022-11-26T03:17:16.939Z,101957.56
2022-11-26T03:20:02.416Z,101968.00
2022-11-26T03:22:47.836Z,101959.34
2022-11-26T03:25:34.564Z,101956.78
2022-11-26T03:28:19.920Z,101951.16
2022-11-26T03:31:05.206Z,101945.94
2022-11-26T03:33:50.390Z,101941.88
2022-11-26T03:36:35.408Z,101945.97
2022-11-26T03:39:20.284Z,101956.88
2022-11-26T03:42:05.469Z,101963.41
2022-11-26T03:44:50.519Z,101961.13
2022-11-26T03:47:35.431Z,101967.31
2022-11-26T03:50:20.476Z,101967.44
2022-11-26T03:53:05.525Z,101966.88
2022-11-26T03:55:50.589Z,101969.53
2022-11-26T03:58:35.502Z,101974.25
2022-11-26T04:01:21.206Z,101981.25
2022-11-26T04:04:06.659Z,101984.16
2022-11-26T04:06:51.647Z,101983.47
2022-11-26T04:09:36.846Z,101987.25
2022-11-26T04:12:22.215Z,101988.03
2022-11-26T04:15:09.329Z,101988.84
2022-11-26T04:17:54.703Z,101991.59
2022-11-26T04:20:39.716Z,101983.38
2022-11-26T04:23:24.603Z,101990.63
2022-11-26T04:26:09.891Z,101991.41
2022-11-26T04:28:54.991Z,102000.63
2022-11-26T04:31:39.797Z,101986.81
2022-11-26T04:34:25.257Z,102001.78
2022-11-26T04:37:10.252Z,102001.09
2022-11-26T04:39:55.667Z,102022.41
2022-11-26T04:42:41.055Z,102026.47
2022-11-26T04:45:26.871Z,102029.69
2022-11-26T04:48:12.304Z,102041.81
2022-11-26T04:50:57.596Z,102034.19
2022-11-26T04:53:42.618Z,102039.31
2022-11-26T04:56:27.836Z,102035.50
2022-11-26T04:59:13.194Z,102048.25
2022-11-26T05:01:58.156Z,102055.19
2022-11-26T05:04:43.344Z,102061.47
2022-11-26T05:07:28.603Z,102061.00
2022-11-26T05:10:13.853Z,102066.69
2022-11-26T05:12:59.560Z,102070.06
2022-11-26T05:15:44.843Z,102075.38
2022-11-26T05:18:30.314Z,102073.31
2022-11-26T05:21:15.590Z,102079.28
2022-11-26T05:24:00.366Z,102082.78
2022-11-26T05:26:45.879Z,102079.69
2022-11-26T05:29:31.064Z,102087.81
2022-11-26T05:32:16.508Z,102085.50
2022-11-26T05:35:01.775Z,102085.19
2022-11-26T05:37:46.733Z,102083.25
2022-11-26T05:40:32.513Z,102087.03
2022-11-26T05:43:17.845Z,102086.69
2022-11-26T05:46:07.518Z,102084.13
2022-11-26T05:48:52.799Z,102083.66
2022-11-26T05:51:38.223Z,102086.16
2022-11-26T05:54:23.323Z,102092.97
2022-11-26T05:57:08.529Z,102092.41
2022-11-26T05:59:53.348Z,102085.31
2022-11-26T06:02:38.907Z,102089.53
2022-11-26T06:05:24.251Z,102095.09
2022-11-26T06:08:09.392Z,102097.19
2022-11-26T06:10:55.061Z,102108.06
2022-11-26T06:13:40.382Z,102103.78
2022-11-26T06:16:26.218Z,102110.28
2022-11-26T06:19:11.891Z,102112.66
2022-11-26T06:21:57.052Z,102111.84
2022-11-26T06:24:42.326Z,102120.94
2022-11-26T06:27:27.315Z,102115.16
2022-11-26T06:30:13.341Z,102118.19
2022-11-26T06:32:58.958Z,102129.38
2022-11-26T06:35:44.382Z,102128.38
2022-11-26T06:38:29.355Z,102132.91
2022-11-26T06:41:15.184Z,102141.28
2022-11-26T06:44:00.492Z,102149.50
2022-11-26T06:46:45.764Z,102147.50
2022-11-26T06:49:30.742Z,102153.25
2022-11-26T06:52:16.074Z,102159.22
2022-11-26T06:55:01.823Z,102162.69
2022-11-26T06:57:51.632Z,102160.31
2022-11-26T07:00:37.092Z,102155.97
2022-11-26T07:03:26.212Z,102174.28
2022-11-26T07:06:16.323Z,102167.81
2022-11-26T07:09:07.121Z,102166.28
2022-11-26T07:11:52.032Z,102169.47
2022-11-26T07:14:37.353Z,102173.97
2022-11-26T07:17:22.968Z,102188.00
2022-11-26T07:20:08.704Z,102188.94
2022-11-26T07:22:53.827Z,102186.88
2022-11-26T07:25:39.222Z,102184.81
2022-11-26T07:28:24.633Z,102196.00
2022-11-26T07:31:16.492Z,102198.34
2022-11-26T07:34:02.394Z,102200.34
2022-11-26T07:36:47.708Z,102210.00
2022-11-26T07:39:33.332Z,102204.00
2022-11-26T07:42:18.615Z,102205.66
2022-11-26T07:45:03.750Z,102205.09
2022-11-26T07:47:48.909Z,102210.72
2022-11-26T07:50:34.606Z,102212.38
2022-11-26T07:53:19.880Z,102204.50
2022-11-26T07:56:05.668Z,102196.91
2022-11-26T07:58:50.680Z,102213.75
2022-11-26T08:01:36.752Z,102211.00
2022-11-26T08:04:22.062Z,102207.72
2022-11-26T08:07:07.002Z,102213.25
2022-11-26T08:09:52.377Z,102209.97
2022-11-26T08:12:37.358Z,102213.75
2022-11-26T08:15:25.777Z,102220.28
2022-11-26T08:18:12.763Z,102221.47
2022-11-26T08:20:58.647Z,102221.03
2022-11-26T08:23:43.944Z,102229.44
2022-11-26T08:26:35.932Z,102237.94
2022-11-26T08:29:23.531Z,102232.59
2022-11-26T08:32:09.837Z,102234.56
2022-11-26T08:34:59.646Z,102236.72
2022-11-26T08:37:44.780Z,102233.75
2022-11-26T08:40:30.881Z,102238.97
2022-11-26T08:43:19.201Z,102238.66
2022-11-26T08:46:04.905Z,102227.69
2022-11-26T08:48:58.384Z,102233.50
2022-11-26T08:51:43.903Z,102233.50
2022-11-26T08:54:29.418Z,102235.41
2022-11-26T08:57:14.735Z,102239.03
2022-11-26T09:00:00.105Z,102244.16
2022-11-26T09:02:45.022Z,102243.19
2022-11-26T09:05:31.343Z,102246.94
2022-11-26T09:08:16.749Z,102254.97
2022-11-26T09:11:01.914Z,102249.84
2022-11-26T09:13:47.439Z,102255.84
2022-11-26T09:16:33.156Z,102255.34
2022-11-26T09:19:19.284Z,102252.78
2022-11-26T09:22:04.754Z,102258.91
2022-11-26T09:24:50.436Z,102262.06
2022-11-26T09:27:35.472Z,102260.00
2022-11-26T09:30:20.592Z,102268.38
2022-11-26T09:33:05.565Z,102269.91
2022-11-26T09:35:51.040Z,102270.78
2022-11-26T09:38:37.213Z,102273.00
2022-11-26T09:41:38.591Z,102275.00
2022-11-26T09:45:02.436Z,102276.00
2022-11-26T09:47:51.937Z,102263.31
2022-11-26T09:50:36.930Z,102264.72
2022-11-26T09:53:26.196Z,102265.00
2022-11-26T09:56:18.550Z,102265.09
2022-11-26T09:59:06.859Z,102268.69
2022-11-26T10:01:52.001Z,102262.84
2022-11-26T10:04:37.447Z,102257.78
2022-11-26T10:07:25.699Z,102262.56
2022-11-26T10:10:31.242Z,102255.81
2022-11-26T10:13:26.505Z,102263.63
2022-11-26T10:16:27.561Z,102257.38
2022-11-26T10:19:28.432Z,102253.63
2022-11-26T10:22:34.315Z,102254.13
2022-11-26T10:25:22.714Z,102251.19
2022-11-26T10:28:33.152Z,102253.53
2022-11-26T10:31:24.476Z,102256.41
2022-11-26T10:34:46.700Z,102249.75
2022-11-26T10:37:32.356Z,102238.16
2022-11-26T10:40:26.601Z,102240.81
2022-11-26T10:43:24.053Z,102231.19
2022-11-26T10:46:29.161Z,102228.28
2022-11-26T10:49:16.869Z,102214.09
2022-11-26T10:52:07.998Z,102212.25
2022-11-26T10:55:20.802Z,102215.88
2022-11-26T10:58:14.626Z,102214.09
2022-11-26T11:01:02.964Z,102196.38
2022-11-26T11:04:10.287Z,102196.28
2022-11-26T11:06:56.122Z,102194.88
2022-11-26T11:09:41.406Z,102190.00
2022-11-26T11:12:26.808Z,102190.59
2022-11-26T11:15:18.226Z,102187.28
2022-11-26T11:18:06.578Z,102182.41
2022-11-26T11:20:59.319Z,102178.13
2022-11-26T11:24:07.779Z,102181.47
2022-11-26T11:26:53.509Z,102173.22
2022-11-26T11:29:39.328Z,102168.00
2022-11-26T11:32:35.504Z,102166.25
2022-11-26T11:35:29.891Z,102156.38
2022-11-26T11:38:29.835Z,102152.78
2022-11-26T11:41:43.150Z,102156.69
2022-11-26T11:44:50.964Z,102147.19
2022-11-26T11:47:43.762Z,102164.88
2022-11-26T11:50:42.097Z,102169.56
2022-11-26T11:53:49.985Z,102171.75
2022-11-26T11:57:03.425Z,102165.09
2022-11-26T11:59:51.307Z,102167.75
2022-11-26T12:02:47.031Z,102183.63
2022-11-26T12:05:54.048Z,102179.53
2022-11-26T12:08:45.302Z,102190.22
2022-11-26T12:11:34.689Z,102180.81
2022-11-26T12:14:38.912Z,102189.28
2022-11-26T12:17:53.994Z,102189.63
2022-11-26T12:21:10.188Z,102180.50
2022-11-26T12:23:57.795Z,102194.66
2022-11-26T12:26:51.028Z,102187.56
2022-11-26T12:29:47.353Z,102190.25
2022-11-26T12:32:51.652Z,102182.94
2022-11-26T12:35:43.197Z,102175.41
2022-11-26T12:38:38.338Z,102183.22
2022-11-26T12:41:31.758Z,102170.59
2022-11-26T12:44:23.329Z,102163.13
2022-11-26T12:47:14.558Z,102162.91
2022-11-26T12:50:02.582Z,102165.13
2022-11-26T12:53:03.451Z,102156.56
2022-11-26T12:55:48.476Z,102145.56
2022-11-26T12:58:52.555Z,102144.22
2022-11-26T13:01:39.386Z,102138.13
2022-11-26T13:04:44.058Z,102139.31
2022-11-26T13:07:38.577Z,102145.00
2022-11-26T13:10:50.880Z,102134.69
2022-11-26T13:13:46.915Z,102141.53
2022-11-26T13:16:47.659Z,102131.53
2022-11-26T13:19:45.091Z,102114.91
2022-11-26T13:23:08.558Z,102122.72
2022-11-26T13:26:28.206Z,102121.81
2022-11-26T13:29:31.864Z,102113.28
2022-11-26T13:32:32.774Z,102107.59
2022-11-26T13:35:26.906Z,102125.28
2022-11-26T13:38:27.163Z,102132.22
2022-11-26T13:41:18.547Z,102129.25
2022-11-26T13:44:32.261Z,102113.22
2022-11-26T13:47:43.739Z,102121.97
2022-11-26T13:50:33.539Z,102119.88
2022-11-26T13:53:27.123Z,102124.97
2022-11-26T13:56:13.419Z,102132.44
2022-11-26T13:59:04.998Z,102143.78
2022-11-26T14:01:50.309Z,102146.66
2022-11-26T14:04:35.562Z,102140.13
2022-11-26T14:07:21.018Z,102135.59
2022-11-26T14:10:28.648Z,102148.16
2022-11-26T14:13:14.385Z,102143.59
2022-11-26T14:16:08.855Z,102138.34
2022-11-26T14:18:55.994Z,102132.78
2022-11-26T14:22:09.103Z,102145.56
2022-11-26T14:24:57.813Z,102143.56
2022-11-26T14:27:55.076Z,102140.72
2022-11-26T14:30:40.528Z,102133.78
2022-11-26T14:33:28.136Z,102139.25
2022-11-26T14:36:22.557Z,102146.94
2022-11-26T14:39:15.172Z,102145.16
2022-11-26T14:42:05.675Z,102139.03
2022-11-26T14:45:06.742Z,102134.63
2022-11-26T14:47:52.474Z,102146.44
2022-11-26T14:50:37.730Z,102139.56
2022-11-26T14:53:30.191Z,102136.13
2022-11-26T14:56:18.794Z,102130.66
2022-11-26T14:59:05.380Z,102126.25
2022-11-26T15:01:50.389Z,102129.56
2022-11-26T15:04:36.088Z,102132.19
2022-11-26T15:07:25.299Z,102125.88
2022-11-26T15:10:15.174Z,102119.03
2022-11-26T15:13:13.604Z,102122.06
2022-11-26T15:16:00.959Z,102129.66
2022-11-26T15:18:46.263Z,102129.34
2022-11-26T15:21:31.734Z,102142.09
2022-11-26T15:24:20.280Z,102123.97
2022-11-26T15:27:06.114Z,102127.28
2022-11-26T15:29:51.310Z,102128.88
2022-11-26T15:32:36.817Z,102127.88
2022-11-26T15:35:22.304Z,102128.69
2022-11-26T15:38:18.167Z,102121.81
2022-11-26T15:41:16.959Z,102127.81
2022-11-26T15:44:02.361Z,102126.09
2022-11-26T15:46:51.238Z,102127.22
2022-11-26T15:49:40.516Z,102119.00
2022-11-26T15:52:31.225Z,102130.03
2022-11-26T15:55:27.796Z,102135.41
2022-11-26T15:58:20.386Z,102132.41
2022-11-26T16:01:15.932Z,102150.59
2022-11-26T16:04:01.677Z,102140.34
2022-11-26T16:06:46.947Z,102149.63
2022-11-26T16:09:32.654Z,102148.28
2022-11-26T16:12:33.352Z,102140.56
2022-11-26T16:15:21.673Z,102142.88
2022-11-26T16:18:16.174Z,102146.50
2022-11-26T16:21:29.090Z,102148.03
2022-11-26T16:24:26.125Z,102139.91
2022-11-26T16:27:17.235Z,102143.94
2022-11-26T16:30:14.036Z,102155.38
2022-11-26T16:32:59.572Z,102150.06
2022-11-26T16:35:46.502Z,102153.66
2022-11-26T16:38:32.246Z,102153.63
2022-11-26T16:41:19.664Z,102150.72
2022-11-26T16:44:04.984Z,102160.41
2022-11-26T16:46:51.300Z,102160.19
2022-11-26T16:49:36.438Z,102169.84
2022-11-26T16:52:22.171Z,102169.63
2022-11-26T16:55:11.209Z,102159.97
2022-11-26T16:57:59.887Z,102158.06
2022-11-26T17:00:45.565Z,102153.63
2022-11-26T17:03:30.778Z,102157.97
2022-11-26T17:06:20.490Z,102155.38
2022-11-26T17:09:05.535Z,102156.19
2022-11-26T17:11:50.562Z,102151.09
2022-11-26T17:14:35.467Z,102150.16
2022-11-26T17:17:25.282Z,102148.22
2022-11-26T17:20:15.316Z,102153.22
2022-11-26T17:23:00.252Z,102150.72
2022-11-26T17:25:49.751Z,102146.78
2022-11-26T17:28:35.008Z,102151.72
2022-11-26T17:31:20.474Z,102155.88
2022-11-26T17:34:05.706Z,102150.56
2022-11-26T17:36:53.044Z,102151.13
2022-11-26T17:39:38.171Z,102159.84
2022-11-26T17:42:23.732Z,102159.47
2022-11-26T17:45:09.916Z,102146.06
2022-11-26T17:47:55.244Z,102150.31
2022-11-26T17:50:40.669Z,102156.25
2022-11-26T17:53:26.090Z,102148.53
2022-11-26T17:56:22.288Z,102145.25
2022-11-26T17:59:07.419Z,102151.28
2022-11-26T18:03:47.981Z,102148.53
2022-11-26T18:06:58.255Z,102147.50
2022-11-26T18:09:43.867Z,102152.50
2022-11-26T18:12:28.960Z,102146.44
2022-11-26T18:15:25.648Z,102141.84
2022-11-26T18:18:10.733Z,102139.66
2022-11-26T18:20:55.599Z,102142.06
2022-11-26T18:23:40.458Z,102145.44
2022-11-26T18:26:26.109Z,102149.56
2022-11-26T18:29:11.831Z,102157.88
2022-11-26T18:31:57.213Z,102154.25
2022-11-26T18:34:42.497Z,102156.66
2022-11-26T18:37:27.773Z,102154.09
2022-11-26T18:40:16.494Z,102146.94
2022-11-26T18:43:01.639Z,102147.63
2022-11-26T18:45:46.724Z,102150.94
2022-11-26T18:48:34.408Z,102154.38
2022-11-26T18:51:19.471Z,102151.19
2022-11-26T18:54:04.709Z,102152.69
2022-11-26T18:56:50.063Z,102155.97
2022-11-26T18:59:35.424Z,102149.44
2022-11-26T19:02:20.275Z,102155.47
2022-11-26T19:05:05.900Z,102148.28
2022-11-26T19:07:50.960Z,102142.97
2022-11-26T19:10:37.413Z,102141.81
2022-11-26T19:13:22.328Z,102144.16
2022-11-26T19:16:15.836Z,102158.66
2022-11-26T19:19:02.162Z,102149.84
2022-11-26T19:21:47.045Z,102143.72
2022-11-26T19:24:32.303Z,102153.88
2022-11-26T19:27:17.154Z,102153.19
2022-11-26T19:30:02.293Z,102144.34
2022-11-26T19:32:47.365Z,102144.50
2022-11-26T19:35:33.016Z,102131.13
2022-11-26T19:38:18.452Z,102133.81
2022-11-26T19:41:03.876Z,102143.97
2022-11-26T19:43:49.155Z,102135.63
2022-11-26T19:46:36.886Z,102140.53
2022-11-26T19:49:21.950Z,102124.50
2022-11-26T19:52:07.305Z,102114.66
2022-11-26T19:54:52.229Z,102122.91
2022-11-26T19:57:37.177Z,102125.91
2022-11-26T20:00:22.676Z,102119.53
2022-11-26T20:03:08.037Z,102127.22
2022-11-26T20:05:53.687Z,102127.50
2022-11-26T20:08:38.605Z,102122.09
2022-11-26T20:11:24.035Z,102121.56
2022-11-26T20:14:09.150Z,102115.88
2022-11-26T20:16:59.441Z,102105.09
2022-11-26T20:19:46.462Z,102108.19
2022-11-26T20:22:31.944Z,102110.16
2022-11-26T20:25:16.900Z,102113.66
2022-11-26T20:28:02.960Z,102119.00
2022-11-26T20:30:48.115Z,102118.00
2022-11-26T20:33:34.855Z,102112.88
2022-11-26T20:36:21.650Z,102118.56
2022-11-26T20:39:07.061Z,102118.81
2022-11-26T20:41:52.206Z,102123.28
2022-11-26T20:44:37.530Z,102118.41
2022-11-26T20:47:22.728Z,102128.50
2022-11-26T20:50:09.095Z,102144.19
2022-11-26T20:52:53.892Z,102154.28
2022-11-26T20:55:38.765Z,102151.69
2022-11-26T20:58:25.636Z,102155.25
2022-11-26T21:01:22.699Z,102153.63
2022-11-26T21:04:07.946Z,102148.56
2022-11-26T21:06:52.778Z,102158.34
2022-11-26T21:09:37.891Z,102160.41
2022-11-26T21:12:23.398Z,102157.25
2022-11-26T21:15:08.945Z,102157.16
2022-11-26T21:17:54.215Z,102162.66
2022-11-26T21:20:40.864Z,102170.75
2022-11-26T21:23:27.166Z,102175.94
2022-11-26T21:26:16.671Z,102172.84
2022-11-26T21:29:02.275Z,102186.66
2022-11-26T21:31:47.701Z,102195.88
2022-11-26T21:34:33.211Z,102182.78
2022-11-26T21:37:19.013Z,102179.69
2022-11-26T21:40:04.051Z,102190.63
2022-11-26T21:42:49.328Z,102196.16
2022-11-26T21:45:34.680Z,102205.13
2022-11-26T21:48:19.548Z,102206.59
2022-11-26T21:51:09.297Z,102214.41
2022-11-26T21:53:55.690Z,102198.06
2022-11-26T21:56:41.141Z,102194.19
2022-11-26T21:59:26.469Z,102197.34
2022-11-26T22:02:12.889Z,102197.44
2022-11-26T22:04:58.300Z,102203.97
2022-11-26T22:07:44.079Z,102195.72
2022-11-26T22:10:33.308Z,102190.38
2022-11-26T22:13:21.267Z,102181.28
2022-11-26T22:16:08.248Z,102173.59
2022-11-26T22:18:53.989Z,102174.22
2022-11-26T22:21:41.014Z,102170.09
2022-11-26T22:24:25.933Z,102168.47
2022-11-26T22:27:11.172Z,102165.44
2022-11-26T22:29:55.968Z,102162.69
2022-11-26T22:32:41.500Z,102160.22
2022-11-26T22:35:26.754Z,102155.31
2022-11-26T22:38:11.946Z,102152.94
2022-11-26T22:41:01.235Z,102126.19
2022-11-26T22:43:46.652Z,102133.88
2022-11-26T22:46:32.517Z,102120.31
2022-11-26T22:49:17.962Z,102120.69
2022-11-26T22:52:03.450Z,102127.69
2022-11-26T22:54:48.578Z,102120.38
2022-11-26T22:57:34.435Z,102116.44
2022-11-26T23:00:46.952Z,102107.88
2022-11-26T23:03:33.933Z,102098.00
2022-11-26T23:06:22.511Z,102099.59
2022-11-26T23:09:09.175Z,102097.91
2022-11-26T23:11:54.202Z,102089.91
2022-11-26T23:14:39.378Z,102097.31
2022-11-26T23:17:24.319Z,102093.59
2022-11-26T23:20:10.283Z,102098.31
2022-11-26T23:22:55.095Z,102089.16
2022-11-26T23:25:41.107Z,102095.53
2022-11-26T23:28:26.417Z,102082.91
2022-11-26T23:31:24.426Z,102078.97
2022-11-26T23:34:10.071Z,102081.94
2022-11-26T23:36:55.295Z,102077.41
2022-11-26T23:39:40.772Z,102081.84
2022-11-26T23:42:25.982Z,102066.16
2022-11-26T23:45:11.312Z,102062.34
2022-11-26T23:47:56.913Z,102058.59
2022-11-26T23:50:42.766Z,102049.41
2022-11-26T23:53:28.038Z,102044.97
2022-11-26T23:56:19.420Z,102043.47
2022-11-26T23:59:05.123Z,102037.19
